Tiempo atmosférico en la estación meteorológica de Vitoria Gasteiz Aeropuerto Foronda, Araba/Álava (513 m.)



Fecha
DESCASC
Temp. máxima en grados centígrados (hora)
DESCASC
Temp. mínima en grados centígrados (hora)
DESCASC
Temp. media en grados centígrados
DESCASC
Racha de viento máxima en m/sg (hora)
DESCASC
Velocidad máxima media en intervalos de 10 minutos(hora)
DESCASC
Precipitaciones diarias en mm
DESCASC
Precipitaciones de 00:00 a 06:00 en mm
DESCASC
Precipitaciones de 06:00 a 12:00 en mm
DESCASC
Precipitaciones de 12:00 a 18:00 en mm
DESCASC
Precipitaciones de 18:00 a 24:00 en mm
DESCASC

Gráficas

Temp. máximas Temp. mínimas Temp. medias Precipitaciones Rachas de viento máximas Velocidades máximas media en intervalos de 10 minutos

Datos horarios

Fecha y hora oficial Temperatura (ºC) Velocidad del viento (km/h) Dirección del viento Racha (km/h) Dirección de racha Precipitación (mm) Presión (hPa) Tendencia (hPa) Humedad (%)
2020-04-01 23:00:00 8.1 5 Este 11 Nordeste 0 954.3 1.1 94
2020-04-01 22:00:00 8.1 6 Nordeste 13 Este 0.2 954 1 92
2020-04-01 21:00:00 9 10 Este 17 Este 0 953.4 0.5 85
2020-04-01 20:00:00 9.9 9 Este 24 Este 0 953.2 0.3 80
2020-04-01 19:00:00 11 15 Este 37 Este 0 953 -0.1 75
2020-04-01 18:00:00 11.5 13 Sudeste 32 Este 0 952.9 -0.5 70
2020-04-01 17:00:00 11.6 13 Este 26 Este 0 952.9 -0.8 70
2020-04-01 16:00:00 11.3 17 Este 28 Sudeste 0 953.1 -0.9 73
2020-04-01 15:00:00 11.2 18 Este 28 Este 0 953.4 -0.7 72
2020-04-01 14:00:00 11.1 15 Sudeste 32 Sudeste 0 953.7 -0.3 75
2020-04-01 13:00:00 8.8 14 Sudeste 30 Sudeste 0.5 954 0.1 82
2020-04-01 12:00:00 9.2 13 Sudeste 26 Sudeste 0 954.1 0.5 75
2020-04-01 11:00:00 8.7 6 Sudeste 18 Sur 0 954 0.9 80
2020-04-01 10:00:00 8.4 5 Sudeste 30 Sudeste 0 953.9 0.9 80
2020-04-01 09:00:00 7.9 3 Sur 18 Este 0 953.6 0.6 86
2020-04-01 08:00:00 8.2 8 Este 24 Sudeste 0 953.1 0 83
2020-04-01 07:00:00 8.1 11 Este 26 Sudeste 0 953 -0.5 83
2020-04-01 06:00:00 8.4 14 Este 30 Este 0 953 -0.7 80
2020-04-01 05:00:00 8 17 Este 28 Sudeste 0 953.1 -0.7 84
2020-04-01 04:00:00 8.3 14 Este 24 Este 0 953.5 -0.4 81
2020-04-01 03:00:00 8.3 13 Este 24 Este 0 953.7 -0.3 82
2020-04-01 02:00:00 8.2 11 Este 32 Este 0 953.8 0 83
2020-04-01 01:00:00 8.1 16 Este 37 Este 0 953.9 0.1 84
2020-04-01 00:00:00 8.6 17 Este 37 Sudeste 0 954 0.7 80
2020-03-31 23:00:00 8.5 18 Este 33 Este 0 953.8 0.7 79
2020-03-31 22:00:00 8.4 16 Este 39 Sudeste 0 953.8 1.1 78
2020-03-31 21:00:00 8 23 Este 37 Este 0 953.3 0.5 79
2020-03-31 20:00:00 8.3 16 Este 35 Este 0 953.1 0.6 77
2020-03-31 19:00:00 8.3 19 Este 32 Este 0 952.7 -0.2 77
2020-03-31 18:00:00 8.3 13 Este 35 Este 0 952.8 -0.1 75
2020-03-31 17:00:00 7.7 19 Este 35 Este 0 952.5 -0.7 79
2020-03-31 16:00:00 7.3 23 Este 35 Este 0 952.9 -0.5 80
2020-03-31 15:00:00 6.9 14 Nordeste 21 Este 0 952.9 -0.7 84
2020-03-31 14:00:00 5.6 8 Nordeste 11 Nordeste 0.2 953.2 -0.6 90
2020-03-31 13:00:00 4.4 8 Nordeste 13 Nordeste 0 953.4 -0.1 88
2020-03-31 12:00:00 3 9 Nordeste 13 Norte 0 953.6 0.1 89
2020-03-31 11:00:00 2.2 9 Nordeste 13 Nordeste 0 953.8 0.6 90
2020-03-31 10:00:00 1.5 3 Nordeste 8 Nordeste 0 953.5 0 89
2020-03-31 09:00:00 0.8 6 Norte 9 Nordeste 0 953.5 0.2 93
2020-03-31 08:00:00 0.4 7 Nordeste 11 Nordeste 0 953.2 -0.5 95
2020-03-31 07:00:00 0.2 5 Este 9 Norte 0 953.5 -0.6 95
2020-03-31 06:00:00 0.1 6 Nordeste 11 Norte 0 953.3 -1.5 94
2020-03-31 05:00:00 -0.3 6 Nordeste 11 Nordeste 0 953.7 -1.5 96
2020-03-31 04:00:00 -0.6 5 Nordeste 9 Norte 0 954.1 -1.6 97
2020-03-31 03:00:00 -0.7 2 Norte -- -- 0 954.8 -1.1 97
2020-03-31 02:00:00 -0.7 3 Norte 9 Norte 0 955.2 -1.3 96
2020-03-31 01:00:00 -1.2 7 Sur 9 Sur 0 955.7 -1 96
2020-03-31 00:00:00 -1 4 Norte 9 Nordeste 0 955.9 -0.6 94
2020-03-30 23:00:00 0.7 3 Noroeste 8 Noroeste 0 956.5 -0.2 88
2020-03-30 22:00:00 1.1 4 Este 8 Noroeste 0 956.7 0.3 91
2020-03-30 21:00:00 1.3 5 Norte 18 Nordeste 0.1 956.5 -0.1 92
2020-03-30 20:00:00 2.2 14 Norte 26 Nordeste 0 956.7 -0.1 83
2020-03-30 19:00:00 2.8 18 Norte 26 Norte 0 956.4 -0.9 79
2020-03-30 18:00:00 3 18 Norte 45 Norte 0 956.6 -1.1 80
2020-03-30 17:00:00 4 31 Norte 42 Norte 0 956.8 -1.7 71
2020-03-30 16:00:00 3.6 16 Norte 33 Nordeste 0 957.3 -1.6 71
2020-03-30 15:00:00 5.6 14 Norte 33 Norte 0 957.7 -1.8 62
2020-03-30 14:00:00 5.5 19 Nordeste 35 Nordeste 0 958.5 -1.3 64
2020-03-30 13:00:00 4.3 23 Norte 39 Norte 0 958.9 -0.7 72
2020-03-30 12:00:00 3.8 29 Norte 41 Norte 0 959.5 -0.2 74
2020-03-30 11:00:00 2.5 21 Norte 39 Norte 0 959.8 0.3 80
2020-03-30 10:00:00 1.3 15 Norte 28 Norte 0.2 959.6 0.4 85
2020-03-30 09:00:00 0.6 14 Norte 37 Norte 0.3 959.7 -0.2 93
2020-03-30 08:00:00 0 12 Norte 39 Norte 0.1 959.5 -0.9 92
2020-03-30 07:00:00 1 7 Norte 24 Norte 0 959.2 -1.7 86
2020-03-30 06:00:00 1.3 17 Norte 28 Nordeste 0 959.9 -1.5 91
2020-03-30 05:00:00 1.8 15 Norte 24 Norte 0 960.4 -0.8 83
2020-03-30 04:00:00 1.8 17 Norte 33 Norte 0 960.9 -0.5 85
2020-03-30 03:00:00 2.5 27 Norte 45 Norte 0 961.4 -0.1 88
2020-03-30 02:00:00 3.3 15 Norte 26 Norte 0 961.2 -0.1 91
2020-03-30 01:00:00 3.8 13 Norte 28 Norte 0 961.4 0.2 88
2020-03-30 00:00:00 4.3 22 Norte 33 Norte 0 961.5 0.6 86
2020-03-29 23:00:00 5.2 21 Norte 35 Norte 0 961.3 0.5 86
2020-03-29 22:00:00 5.7 24 Norte 33 Norte 0 961.2 0.5 89
2020-03-29 21:00:00 6.1 19 Norte 32 Norte 0 960.9 0.6 93
2020-03-29 20:00:00 6.7 20 Norte 32 Norte 0 960.8 0.7 91
2020-03-29 19:00:00 7.1 18 Norte 35 Norte 0 960.7 0.6 90
2020-03-29 18:00:00 8.3 21 Norte 41 Norte 0 960.3 -0.1 83
2020-03-29 17:00:00 10.2 23 Norte 37 Norte 0 960.1 -0.7 72
2020-03-29 16:00:00 12.2 26 Norte 37 Norte 0 960.1 -1 60
2020-03-29 15:00:00 13.1 17 Norte 41 Norte 0 960.4 -0.9 52
2020-03-29 14:00:00 12.7 21 Norte 35 Norte 0 960.8 -0.7 52
2020-03-29 13:00:00 12.2 21 Norte 33 Nordeste 0 961.1 -0.5 52
2020-03-29 12:00:00 10.9 4 Sudeste 13 Este 0 961.3 -0.1 61
2020-03-29 11:00:00 7.8 3 Sur 8 Sudoeste 0 961.5 0.3 74
2020-03-29 10:00:00 3.3 3 Este 5 Nordeste 0 961.6 0.7 89
2020-03-29 09:00:00 -1.7 0 Calma 8 Nordeste 0 961.4 0.7 96
2020-03-29 08:00:00 -2.4 0 Calma 5 Oeste 0 961.2 0.5 96
2020-03-29 07:00:00 -2 0 Calma 5 Sudeste 0 960.9 0 97
2020-03-29 06:00:00 -2 0 Calma 5 Sudoeste 0 960.7 -0.5 95
2020-03-29 05:00:00 -1 3 Oeste 5 Este 0 960.7 -0.6 95
2020-03-29 03:00:00 0.3 4 Nordeste 8 Este 0 961.2 0 92
2020-03-29 01:00:00 1.1 6 Este 9 Nordeste 0 961.3 0.3 91
2020-03-29 00:00:00 2.3 4 Norte 5 Norte 0 961.2 0.7 86
2020-03-28 23:00:00 3.6 0 Calma -- -- 0 961.2 1.7 84
2020-03-28 22:00:00 4.8 3 Sudeste 5 Este 0 961 2.2 79
2020-03-28 21:00:00 7.4 5 Norte 18 Norte 0 960.5 2.5 69
2020-03-28 20:00:00 9.7 13 Norte 26 Norte 0 959.5 1.8 59
2020-03-28 19:00:00 12.3 19 Norte 32 Norte 0 958.8 1 53
2020-03-28 18:00:00 14.7 21 Norte 30 Norte 0 958 0 48
2020-03-28 17:00:00 16.2 19 Nordeste 28 Nordeste 0 957.7 -0.8 45
2020-03-28 16:00:00 16.4 13 Norte 30 Norte 0 957.8 -1.1 39
2020-03-28 15:00:00 16.6 7 Norte 22 Nordeste 0 958 -1.4 40
2020-03-28 14:00:00 16.1 10 Este 18 Este 0 958.5 -1.1 42
2020-03-28 13:00:00 15.1 6 Sudeste 17 Este 0 958.9 -0.8 45
2020-03-28 12:00:00 12.7 6 Este 13 Este 0 959.4 -0.1 51
2020-03-28 11:00:00 9.3 3 Sur 9 Sur 0 959.6 0.7 65
2020-03-28 10:00:00 5.8 3 Oeste 8 Oeste 0 959.7 1.1 79
2020-03-28 09:00:00 2.9 2 Norte 8 Nordeste 0 959.5 1.3 88
2020-03-28 08:00:00 -1.3 6 Nordeste 8 Nordeste 0 958.9 1.1 96
2020-03-28 07:00:00 -2 3 Oeste 5 Oeste 0 958.6 1 95
2020-03-28 06:00:00 -2.1 0 Calma 5 Sur 0 958.2 0.6 96
2020-03-28 05:00:00 -1.8 0 Calma 5 Nordeste 0 957.8 0.1 94
2020-03-28 04:00:00 -0.5 3 Norte 9 Este 0 957.6 0.1 95
2020-03-28 03:00:00 -1 4 Este 5 Este 0 957.6 0.2 93
2020-03-28 02:00:00 0.6 0 Calma 5 Sur 0 957.7 0.5 92
2020-03-28 01:00:00 1.7 0 Calma 5 Sudeste 0 957.5 0.6 88
2020-03-28 00:00:00 3.2 3 Sur 8 Norte 0 957.4 1.1 86
2020-03-27 23:00:00 4.8 7 Norte 18 Norte 0 957.2 1.7 79
2020-03-27 22:00:00 5.6 12 Norte 21 Norte 0 956.9 2.2 77
2020-03-27 21:00:00 6.4 4 Norte 22 Norte 0 956.3 2.4 73
2020-03-27 20:00:00 7.7 16 Norte 32 Nordeste 0 955.5 1.9 70
2020-03-27 19:00:00 10.3 21 Nordeste 32 Nordeste 0 954.7 0.9 59
2020-03-27 18:00:00 13.3 16 Norte 24 Nordeste 0 953.9 -0.2 43
2020-03-27 17:00:00 13.6 13 Norte 26 Nordeste 0 953.6 -1 39
2020-03-27 16:00:00 13.2 9 Nordeste 24 Nordeste 0 953.8 -1.2 37
2020-03-27 15:00:00 13.3 14 Nordeste 28 Norte 0 954.1 -1.5 37
2020-03-27 14:00:00 12.5 10 Nordeste 24 Este 0 954.6 -1.4 38
2020-03-27 13:00:00 11.6 11 Norte 21 Norte 0 955 -0.9 44
2020-03-27 12:00:00 10 8 Este 18 Este 0 955.6 -0.2 50
2020-03-27 11:00:00 7.8 5 Este 13 Este 0 956 0.4 57
2020-03-27 10:00:00 4.1 2 Norte 5 Norte 0 955.9 0.6 76
2020-03-27 09:00:00 0.4 3 Sudoeste 5 Sudoeste 0 955.8 1.1 88
2020-03-27 08:00:00 -2.9 3 Sudoeste 9 Oeste 0 955.6 1.1 93
2020-03-27 07:00:00 -4 3 Este 9 Nordeste 0 955.3 1.2 95
2020-03-27 06:00:00 -3.9 2 Noroeste 8 Noroeste 0 954.7 0.3 93
2020-03-27 05:00:00 -3.9 6 Norte 9 Nordeste 0 954.5 0.1 94
2020-03-27 04:00:00 -2.8 4 Noroeste 9 Noroeste 0 954.1 -0.1 94
2020-03-27 03:00:00 -2.7 6 Nordeste 8 Nordeste 0 954.4 0.2 92
2020-03-27 02:00:00 -1.9 0 Calma 8 Norte 0 954.4 0.1 89
2020-03-27 01:00:00 -1.9 3 Sur 9 Oeste 0 954.2 0.1 89
2020-03-27 00:00:00 0 5 Oeste 9 Oeste 0 954.2 0 83
2020-03-26 23:00:00 0.8 0 Calma 13 Noroeste 0 954.3 0.8 78
2020-03-26 22:00:00 2.5 8 Noroeste 13 Norte 0 954.1 1 73
2020-03-26 21:00:00 3.2 4 Nordeste 21 Noroeste 0 954.2 1.6 73
2020-03-26 20:00:00 5.3 12 Noroeste 22 Noroeste 0 953.5 1.1 63
2020-03-26 19:00:00 6.5 13 Norte 30 Norte 0 953.1 1.1 58
2020-03-26 18:00:00 8.4 18 Norte 37 Noroeste 0 952.6 0.6 47
2020-03-26 17:00:00 8.3 18 Noroeste 41 Norte 0 952.4 0.1 48
2020-03-26 16:00:00 8.4 24 Norte 37 Norte 0 952 -0.6 45
2020-03-26 15:00:00 8.9 25 Norte 42 Noroeste 0 952 -0.5 44
2020-03-26 14:00:00 9.6 28 Noroeste 45 Norte 0 952.3 -0.3 49
2020-03-26 13:00:00 8.8 24 Norte 52 Norte 0 952.6 0 52
2020-03-26 12:00:00 9.3 34 Norte 52 Norte 0 952.5 -0.1 51
2020-03-26 11:00:00 8.4 26 Norte 45 Norte 0 952.6 -0.1 61
2020-03-26 10:00:00 7.9 18 Noroeste 35 Norte 0 952.6 0 65
2020-03-26 09:00:00 6.5 15 Noroeste 28 Noroeste 0 952.6 -0.2 78
2020-03-26 08:00:00 6 15 Noroeste 33 Oeste 0 952.7 -0.2 79
2020-03-26 07:00:00 5.6 16 Noroeste 30 Noroeste 0 952.6 -1 79
2020-03-26 06:00:00 5.4 12 Noroeste 26 Noroeste 0 952.8 -1.2 78
2020-03-26 05:00:00 5.8 17 Noroeste 30 Noroeste 0 952.9 -1.6 78
2020-03-26 04:00:00 5.5 13 Noroeste 22 Noroeste 0 953.6 -1.5 80
2020-03-26 03:00:00 5.4 12 Noroeste 24 Noroeste 0 954 -1.7 76
2020-03-26 02:00:00 4.9 14 Noroeste 28 Noroeste 0 954.5 -1.1 78
2020-03-26 01:00:00 4.9 10 Oeste 21 Oeste 0 955.1 -0.8 82
2020-03-26 00:00:00 4.6 6 Nordeste 26 Noroeste 0 955.7 0.3 80
2020-03-25 23:00:00 4.1 6 Noroeste 21 Norte 0 955.6 0.6 78
2020-03-25 22:00:00 4.1 4 Este 26 Oeste 0 955.9 1.6 77
2020-03-25 21:00:00 3.3 6 Oeste 21 Nordeste 0 955.4 1.3 86
2020-03-25 20:00:00 6.2 14 Nordeste 30 Noroeste 0 955 1.1 77
2020-03-25 19:00:00 10.6 17 Norte 42 Noroeste 0 954.3 0.2 61
2020-03-25 18:00:00 13.1 26 Noroeste 39 Noroeste 0 954.1 -0.3 46
2020-03-25 17:00:00 14.8 25 Noroeste 37 Noroeste 0 953.9 -1 36
2020-03-25 16:00:00 16.1 21 Norte 33 Norte 0 954.1 -1.2 32
2020-03-25 15:00:00 15.2 17 Noroeste 30 Norte 0 954.4 -1.5 44
2020-03-25 14:00:00 16.1 20 Noroeste 30 Noroeste 0 954.9 -1.2 44
2020-03-25 13:00:00 14.9 4 Sudeste 11 Este 0 955.3 -1.1 54
2020-03-25 12:00:00 13 7 Sudoeste 21 Sudoeste 0 955.9 -0.6 68
2020-03-25 11:00:00 10.9 14 Sudoeste 21 Sudoeste 0 956.1 -0.5 78
2020-03-25 10:00:00 8.7 10 Sudoeste 18 Oeste 0 956.4 0 88
2020-03-25 09:00:00 5.1 4 Nordeste 13 Nordeste 0 956.5 0 99
2020-03-25 08:00:00 1.9 7 Nordeste 9 Norte 0 956.6 0.1 99
2020-03-25 07:00:00 0.7 3 Noroeste 5 Noroeste 0 956.4 -0.2 98
2020-03-25 06:00:00 0.9 4 Sudoeste 5 Sur 0 956.5 -0.4 98
2020-03-25 05:00:00 1.2 3 Norte 8 Norte 0 956.5 -0.5 98
2020-03-25 04:00:00 1.3 5 Norte -- -- 0 956.6 -0.6 97
2020-03-25 03:00:00 1.7 4 Nordeste 5 Nordeste 0 956.9 -0.5 96
2020-03-25 02:00:00 2.7 4 Norte 8 Este 0 957 -0.6 95
2020-03-25 01:00:00 3.8 2 Sur 4 Sudeste 0 957.2 -0.4 93
2020-03-25 00:00:00 5.3 3 Sur 9 Sur 0 957.4 0.1 89
2020-03-24 23:00:00 6.9 2 Nordeste 15 Norte 0 957.6 0.8 82
2020-03-24 22:00:00 8.1 10 Norte 21 Norte 0 957.6 0.9 79
2020-03-24 21:00:00 8.6 3 Este 18 Norte 0 957.3 0.7 79
2020-03-24 20:00:00 11.6 14 Norte 21 Norte 0 956.8 0.2 66
2020-03-24 19:00:00 13.5 16 Nordeste 30 Nordeste 0 956.7 -0.3 65
2020-03-24 18:00:00 16.1 15 Nordeste 28 Nordeste 0 956.6 -1.1 57
2020-03-24 17:00:00 16.6 9 Nordeste 13 Nordeste 0 956.6 -1.9 54
2020-03-24 16:00:00 16.8 4 Norte 26 Este 0 957 -2.3 49
2020-03-24 15:00:00 17 7 Este 18 Este 0 957.7 -2.1 49
2020-03-24 14:00:00 16.2 9 Este 18 Sudeste 0 958.5 -1.3 52
2020-03-24 13:00:00 15.4 9 Este 24 Este 0 959.3 -0.7 57
2020-03-24 12:00:00 15.4 15 Este 26 Este 0 959.8 -0.5 58
2020-03-24 11:00:00 14.4 12 Este 18 Este 0 959.8 -0.1 62
2020-03-24 10:00:00 13.1 9 Este 17 Este 0 960 0.6 64
2020-03-24 09:00:00 9.4 4 Norte 11 Nordeste 0 960.3 0.9 88
2020-03-24 08:00:00 4.9 3 Norte 9 Este 0 959.9 0.6 99
2020-03-24 07:00:00 3.7 2 Norte 11 Sudoeste 0 959.4 0.1 98
2020-03-24 06:00:00 3.6 3 Norte 8 Norte 0 959.4 0.1 98
2020-03-24 05:00:00 4.4 4 Norte 11 Noroeste 0 959.3 -0.3 98
2020-03-24 04:00:00 3.6 6 Sur 8 Sur 0 959.3 -0.4 97
2020-03-24 03:00:00 4.5 0 Calma 9 Sur 0 959.3 -0.4 96
2020-03-24 02:00:00 5 3 Sur 8 Sudoeste 0 959.6 -0.1 97
2020-03-24 01:00:00 6 4 Nordeste 11 Nordeste 0 959.7 0.3 97
2020-03-24 00:00:00 6.4 9 Nordeste 13 Nordeste 0 959.7 0.5 93
2020-03-23 23:00:00 7.4 8 Nordeste 17 Nordeste 0 959.7 1.2 92
2020-03-23 22:00:00 9.2 13 Nordeste 21 Este 0 959.4 1.4 91
2020-03-23 21:00:00 10.7 16 Este 37 Este 0 959.2 1.9 84
2020-03-23 20:00:00 11.4 18 Nordeste 28 Nordeste 0 958.5 1.5 85
2020-03-23 19:00:00 12.5 15 Nordeste 28 Nordeste 0 958 0.7 79
2020-03-23 18:00:00 14.7 14 Este 26 Este 0 957.3 -0.3 60
2020-03-23 17:00:00 14.8 13 Este 26 Este 0 957 -1.2 60
2020-03-23 16:00:00 14.3 14 Nordeste -- -- -- 957.3 -1.5 68
2020-03-23 15:00:00 15.7 5 Sudeste 17 Nordeste 0 957.6 -1.4 60
2020-03-23 14:00:00 14.1 10 Nordeste 21 Norte 0 958.2 -1 66
2020-03-23 13:00:00 13.2 10 Nordeste 21 Nordeste 0 958.8 -0.4 71
2020-03-23 12:00:00 13.5 8 Este 21 Nordeste 0 959 0.2 69
2020-03-23 11:00:00 11.9 13 Nordeste 18 Nordeste 0 959.2 1 77
2020-03-23 10:00:00 10.3 13 Nordeste 21 Norte 0 959.2 1.4 83
2020-03-23 09:00:00 9.1 9 Nordeste 11 Nordeste 0 958.8 1.3 90
2020-03-23 08:00:00 8.5 0 Calma 5 Noroeste 0 958.2 1 91
2020-03-23 07:00:00 8.3 4 Norte 13 Norte 0 957.8 0.7 92
2020-03-23 06:00:00 8.4 7 Norte 13 Noroeste 0 957.5 0.4 92
2020-03-23 05:00:00 8.4 9 Norte 15 Norte 0 957.2 0.1 92
2020-03-23 04:00:00 8.2 6 Norte 11 Norte 0 957.1 0.2 93
2020-03-23 03:00:00 7.6 6 Nordeste 9 Nordeste 0 957.1 0.1 95
2020-03-23 02:00:00 8.2 8 Nordeste 9 Nordeste 0 957.1 0.2 94
2020-03-23 01:00:00 8.5 7 Nordeste 9 Nordeste 0 956.9 0.3 94
2020-03-23 00:00:00 8.8 3 Sudoeste 5 Este 0 957 1 90
2020-03-22 23:00:00 9 4 Sudeste 5 Sudeste 0 956.9 1.8 90
2020-03-22 22:00:00 9.1 4 Este 9 Noroeste 0 956.6 2.3 89
2020-03-22 21:00:00 9.7 6 Noroeste 22 Norte 0 956 2.7 81
2020-03-22 20:00:00 10.6 15 Norte 30 Norte 0 955.1 2.3 81
2020-03-22 19:00:00 11.9 18 Norte 35 Norte 0 954.3 1.8 76
2020-03-22 18:00:00 13.5 27 Norte 37 Norte 0 953.3 0.5 68
2020-03-22 17:00:00 16.1 24 Norte 32 Norte 0 952.8 -0.3 56
2020-03-22 16:00:00 16.9 18 Norte 32 Norte 0 952.5 -0.9 51
2020-03-22 15:00:00 17.2 21 Norte 32 Norte 0 952.8 -1 52
2020-03-22 14:00:00 17.2 15 Nordeste 26 Nordeste 0 953.1 -1 53
2020-03-22 13:00:00 16.6 4 Sudeste 13 Este 0 953.4 -0.6 54
2020-03-22 12:00:00 14.9 4 Este 9 Sudeste 0 953.8 0.1 58
2020-03-22 11:00:00 12.5 2 Sudoeste 8 Noroeste 0 954.1 0.7 65
2020-03-22 10:00:00 9.1 3 Este 8 Este 0 954 1.1 79
2020-03-22 09:00:00 5.7 0 Calma 5 Nordeste 0 953.7 1 92
2020-03-22 08:00:00 1.5 5 Nordeste 5 Este 0 953.4 1 98
2020-03-22 07:00:00 1 0 Calma 4 Sur 0 952.9 0.5 98
2020-03-22 06:00:00 1.5 2 Norte 5 Norte 0 952.7 0.1 98
2020-03-22 05:00:00 1.7 3 Sur 5 Sudoeste 0 952.4 -0.3 98
2020-03-22 04:00:00 1.8 3 Este 5 Este 0 952.4 -0.3 96
2020-03-22 03:00:00 2.5 0 Calma 4 Sudoeste 0 952.6 0 95
2020-03-22 02:00:00 3.4 0 Calma -- -- 0 952.7 0.2 95
2020-03-22 01:00:00 3.8 5 Sudeste 8 Sudeste 0 952.7 0.4 93
2020-03-22 00:00:00 5.4 3 Sur 8 Sur 0 952.6 0.7 88
2020-03-21 23:00:00 7.2 4 Este 11 Nordeste 0 952.5 1.2 81
2020-03-21 22:00:00 8.3 8 Nordeste 13 Nordeste 0 952.3 1.6 76
2020-03-21 21:00:00 9.3 9 Nordeste 17 Este 0 951.9 1.5 76
2020-03-21 20:00:00 11.9 10 Este 22 Sudeste 0 951.3 1 67
2020-03-21 19:00:00 13.7 11 Este 18 Este 0 950.7 0.1 62
2020-03-21 18:00:00 15.2 13 Este 24 Este 0 950.4 -0.7 58
2020-03-21 17:00:00 16.6 14 Este 22 Este 0 950.3 -1.4 52
2020-03-21 16:00:00 17.1 12 Este 24 Este 0 950.6 -1.7 47
2020-03-21 15:00:00 16.9 16 Este 24 Este 0 951.1 -1.8 47
2020-03-21 14:00:00 16.4 13 Este 26 Este 0 951.7 -1.7 53
2020-03-21 13:00:00 14.8 13 Este 26 Este 0 952.3 -1.4 57
2020-03-21 12:00:00 14.9 9 Este 22 Sudeste 0 952.9 -1 54
2020-03-21 11:00:00 12.7 10 Este 18 Este 0 953.4 -0.7 62
2020-03-21 10:00:00 11.1 4 Este 11 Este 0 953.7 -0.2 68
2020-03-21 09:00:00 8.8 4 Oeste 13 Sur 0 953.9 0.1 79
2020-03-21 08:00:00 7 7 Sudeste 15 Este 0 954.1 0.1 82
2020-03-21 07:00:00 6.6 2 Sudeste 18 Este 0 953.9 -0.2 81
2020-03-21 06:00:00 5.8 7 Nordeste 13 Este 0 953.8 -0.4 89
2020-03-21 05:00:00 7 9 Noroeste 13 Norte 0 954 -0.7 86
2020-03-21 04:00:00 6.6 10 Norte 13 Norte 0 954.1 -1.3 86
2020-03-21 03:00:00 8.3 5 Norte 11 Norte 0 954.2 -1.3 79
2020-03-21 02:00:00 8.1 5 Norte 18 Nordeste 0 954.7 -1 82
2020-03-21 01:00:00 9 10 Norte 18 Norte 0 955.4 -0.3 79
2020-03-21 00:00:00 9 12 Norte 17 Norte 0 955.5 -0.1 81
2020-03-20 23:00:00 8.8 9 Norte 11 Norte 0 955.7 0.3 82
2020-03-20 22:00:00 9.5 6 Este 13 Este 0 955.7 0.4 78
2020-03-20 21:00:00 10.8 10 Este 17 Nordeste 0 955.6 0.4 75
2020-03-20 20:00:00 11 11 Este 17 Este 0 955.4 0.2 75
2020-03-20 19:00:00 12.1 11 Este 17 Este 0 955.3 -0.1 71
2020-03-20 18:00:00 13.8 8 Sudeste 24 Sudeste 0 955.2 -0.6 61
2020-03-20 17:00:00 15.1 15 Sudeste 30 Sudeste 0 955.2 -1.1 55
2020-03-20 16:00:00 15.5 16 Sudeste 32 Sudeste 0 955.4 -1.5 54
2020-03-20 15:00:00 15.9 18 Sudeste 37 Sudeste 0 955.8 -1.6 51
2020-03-20 14:00:00 14.6 23 Sudeste 45 Sudeste 0 956.3 -1.3 47
2020-03-20 13:00:00 15.1 23 Sudeste 35 Sur 0 956.9 -0.7 47
2020-03-20 12:00:00 14.1 13 Este 30 Este 0 957.4 -0.1 50
2020-03-20 11:00:00 13.6 6 Norte 18 Este 0 957.6 0.2 47
2020-03-20 10:00:00 11.8 6 Sudeste 17 Este 0 957.6 0.4 52
2020-03-20 09:00:00 10.2 4 Este 13 Este 0 957.5 0.3 57
2020-03-20 08:00:00 7.5 2 Este 15 Norte 0 957.4 0.2 63
2020-03-20 07:00:00 6 5 Norte 11 Norte 0 957.2 -0.1 69
2020-03-20 06:00:00 7.3 3 Oeste 9 Oeste 0 957.2 -0.5 66
2020-03-20 05:00:00 7.3 5 Norte 17 Noroeste 0 957.2 -0.7 69
2020-03-20 04:00:00 7.9 5 Noroeste 11 Noroeste 0 957.3 -0.7 66
2020-03-20 03:00:00 9.2 8 Este 21 Este 0 957.7 -0.5 64
2020-03-20 02:00:00 8.3 7 Nordeste 9 Nordeste 0 957.9 -0.3 69
2020-03-20 01:00:00 9.1 6 Noroeste 18 Nordeste 0 958 -0.3 78
2020-03-20 00:00:00 9.1 12 Norte 17 Norte 0 958.2 -0.1 77
2020-03-19 23:00:00 8.5 4 Sudoeste 13 Norte 0 958.2 0 83
2020-03-19 22:00:00 9 5 Norte 13 Norte 0 958.3 0.3 81
2020-03-19 21:00:00 10.3 3 Norte 11 Nordeste 0 958.3 0.3 71
2020-03-19 20:00:00 12.3 6 Nordeste 11 Sudeste 0 958.2 0.1 61
2020-03-19 19:00:00 14.8 9 Este 21 Este 0 958 -0.5 51
2020-03-19 18:00:00 16.7 10 Sur 26 Sur 0 958 -1.2 46
2020-03-19 17:00:00 18.8 14 Sudeste 30 Sur 0 958.1 -1.7 46
2020-03-19 16:00:00 19.2 16 Sur 33 Sudeste 0 958.5 -2.2 37
2020-03-19 15:00:00 19.3 18 Sur 37 Sur 0 959.2 -2.4 43
2020-03-19 14:00:00 18.7 23 Sur 39 Sur 0 959.8 -2.5 46
2020-03-19 13:00:00 17.3 6 Sur 21 Sur 0 960.7 -1.8 60
2020-03-19 12:00:00 14.8 8 Sudoeste 15 Sudoeste 0 961.6 -0.8 72
2020-03-19 11:00:00 13.4 10 Sudoeste 17 Sudoeste 0 962.3 0.2 76
2020-03-19 10:00:00 11.8 12 Sudoeste 17 Oeste 0 962.5 0.4 83
2020-03-19 09:00:00 10 13 Sudoeste 18 Sudoeste 0 962.4 0.3 92
2020-03-19 08:00:00 8.1 12 Sudoeste 18 Sudoeste 0 962.1 0 99
2020-03-19 07:00:00 7.4 8 Sudoeste 13 Sudoeste 0 962.1 -0.3 100
2020-03-19 06:00:00 5.1 4 Sudoeste 13 Sudoeste 0 962.1 -0.9 99
2020-03-19 05:00:00 5.1 3 Sudoeste 8 Sur 0 962.1 -1.5 99
2020-03-19 04:00:00 5.4 0 Calma 4 Norte 0 962.4 -1.4 99
2020-03-19 03:00:00 5.9 0 Calma 4 Sudeste 0 963 -1.2 98
2020-03-19 02:00:00 6.4 3 Este 5 Este 0 963.6 -0.8 98
2020-03-19 01:00:00 6.6 6 Nordeste 8 Nordeste 0 963.8 -0.7 98
2020-03-19 00:00:00 7.7 3 Norte 5 Norte 0 964.2 -0.3 97
2020-03-18 23:00:00 8.5 5 Nordeste 8 Nordeste 0 964.4 0 95
2020-03-18 22:00:00 9.9 0 Calma 15 Sudoeste 0 964.5 0.3 93
2020-03-18 21:00:00 11.2 4 Sudoeste 13 Sudoeste 0 964.5 0.6 90
2020-03-18 20:00:00 12.3 11 Sudoeste 17 Sudoeste 0 964.4 0.4 89
2020-03-18 19:00:00 13.7 13 Sudoeste 17 Sudoeste 0 964.2 -0.3 86
2020-03-18 18:00:00 15.3 13 Sudoeste 18 Sudoeste 0 963.9 -0.9 81
2020-03-18 17:00:00 16.6 12 Sudoeste 17 Sudoeste 0 964 -- 75
2020-03-18 16:00:00 17.2 11 Sudoeste 17 Oeste 0 964.5 -1.9 70
2020-03-18 15:00:00 16.9 8 Oeste 18 Oeste -- 964.8 -2.4 71
2020-03-18 14:00:00 -- 4 Oeste 11 Sudoeste -- -- -- --
2020-03-18 13:00:00 15.7 5 Sur 17 Sur 0 966.4 -1.5 70
2020-03-18 12:00:00 13.9 8 Sudoeste 18 Sudoeste 0 967.2 -0.6 78
2020-03-18 11:00:00 11.8 9 Sudoeste 13 Sudoeste 0 967.8 0.1 89
2020-03-18 10:00:00 8.2 3 Este 9 Nordeste 0 967.9 0.3 100
2020-03-18 09:00:00 6.1 7 Nordeste 9 Nordeste 0 967.8 0.1 100
2020-03-18 08:00:00 4 5 Nordeste 8 Este 0 967.7 0 100
2020-03-18 07:00:00 3.7 7 Nordeste 9 Nordeste 0 967.6 -0.2 100
2020-03-18 06:00:00 3.6 3 Nordeste 8 Norte 0 967.7 -0.5 100
2020-03-18 05:00:00 4.5 4 Noroeste 8 Noroeste 0 967.7 -0.8 100
2020-03-18 04:00:00 5 0 Calma 9 Oeste 0 967.8 -0.9 100
2020-03-18 03:00:00 5 -- -- -- -- 0 968.2 -0.9 100
2020-03-18 02:00:00 5.2 0 Calma 9 Oeste 0 968.5 -0.9 99
2020-03-18 01:00:00 5.5 4 Norte 8 Norte 0 968.7 -0.6 99
2020-03-18 00:00:00 6.1 0 Calma 8 Norte 0 969.1 -0.1 99
2020-03-17 23:00:00 7.5 0 Calma -- -- 0 969.4 0.5 99
2020-03-17 22:00:00 8.2 4 Este 11 Nordeste 0 969.3 0.6 97
2020-03-17 21:00:00 9.8 -- -- -- -- 0 969.2 0.7 94
2020-03-17 20:00:00 10.1 4 Oeste 5 Oeste 0 968.9 0.5 93
2020-03-17 19:00:00 10.4 3 Norte 8 Nordeste 0 968.7 0.5 91
2020-03-17 18:00:00 10.4 5 Nordeste 11 Norte 0 968.5 0 90
2020-03-17 17:00:00 10.3 11 Norte 18 Norte 0 968.4 -0.3 91
2020-03-17 16:00:00 10.4 14 Norte 21 Norte 0 968.2 -0.5 90
2020-03-17 15:00:00 10.1 14 Norte 21 Norte 0 968.5 -0.4 91
2020-03-17 14:00:00 10.1 14 Norte 21 Nordeste 0 968.7 0.1 90
2020-03-17 13:00:00 10 15 Nordeste 24 Nordeste 0 968.7 0.5 90
2020-03-17 12:00:00 9.6 15 Nordeste 22 Nordeste 0 968.9 1.2 92
2020-03-17 11:00:00 9 11 Norte 21 Norte 0 968.6 1.2 93
2020-03-17 10:00:00 8.8 14 Norte 21 Norte 0 968.2 1.3 94
2020-03-17 09:00:00 8.4 10 Norte 21 Norte 0 967.7 1.5 95
2020-03-17 08:00:00 7.9 10 Norte 21 Norte 0 967.4 1.8 96
2020-03-17 07:00:00 7.9 11 Nordeste 18 Norte 0 966.9 1.7 96
2020-03-17 06:00:00 7.6 4 Nordeste 8 Norte 0.4 966.2 0.8 97
2020-03-17 05:00:00 7.6 5 Nordeste 17 Norte 0.1 965.6 0.2 97
2020-03-17 04:00:00 7.8 11 Norte 18 Norte 0 965.2 -0.3 95
2020-03-17 03:00:00 7.7 12 Norte 21 Norte 0 965.4 0.2 94
2020-03-17 02:00:00 7.5 6 Nordeste 9 Norte 0.1 965.4 0.7 95
2020-03-17 01:00:00 7.3 4 Nordeste 13 Nordeste 0 965.5 1.8 95
2020-03-17 00:00:00 7.4 10 Norte 21 Norte 0.3 965.2 2.2 94
2020-03-16 23:00:00 7.3 11 Norte 30 Norte 0 964.7 2.7 91
2020-03-16 22:00:00 7.3 15 Norte 24 Norte 0 963.7 2.5 92
2020-03-16 21:00:00 7.2 15 Norte 33 Norte 0 963 2.5 92
2020-03-16 20:00:00 7.2 19 Norte 30 Norte 0 962 2 92
2020-03-16 19:00:00 7.3 15 Nordeste 33 Nordeste 0 961.2 1.3 95
2020-03-16 18:00:00 7.5 22 Nordeste 33 Nordeste 0 960.5 1.1 92
2020-03-16 17:00:00 8 23 Norte 30 Norte 0.3 960 0.7 93
2020-03-16 16:00:00 8.1 19 Norte 30 Norte 0.3 959.9 1.2 89
2020-03-16 15:00:00 7.8 20 Norte 35 Nordeste 0.7 959.4 1.4 91
2020-03-16 14:00:00 7.6 19 Norte 28 Norte 1.3 959.3 2 93
2020-03-16 13:00:00 6.9 15 Norte 35 Norte 0.6 958.7 1.8 91
2020-03-16 12:00:00 6.4 19 Norte 41 Norte 0.1 958 1.5 90
2020-03-16 11:00:00 6 22 Norte 42 Norte 0.5 957.3 1.5 90
2020-03-16 10:00:00 4.7 4 Sudoeste 9 Sudoeste 1.3 956.9 1.7 93
2020-03-16 09:00:00 4.2 2 Sur 11 Sur 0.9 956.5 1.8 92
2020-03-16 08:00:00 3.8 4 Sur 5 Sur 1 955.8 1.5 93
2020-03-16 07:00:00 3.7 0 Calma 11 Noroeste 1.3 955.2 0.7 92
2020-03-16 06:00:00 3.8 9 Norte 21 Noroeste 2 954.7 0.8 91
2020-03-16 05:00:00 3.8 7 Norte 18 Norte 1.2 954.3 -0.1 93
2020-03-16 04:00:00 4.1 8 Oeste 30 Noroeste 1.1 954.5 0.6 89
2020-03-16 03:00:00 4.4 15 Norte 24 Norte 3.2 953.9 -0.5 92
2020-03-16 02:00:00 5.4 10 Oeste 17 Noroeste 1.1 954.4 -0.1 93
2020-03-16 01:00:00 5.7 12 Norte 24 Noroeste 0 953.9 0.7 91
2020-03-16 00:00:00 5.9 17 Norte 33 Noroeste 0.3 954.4 1.7 90
2020-03-15 23:00:00 5.8 27 Noroeste 39 Noroeste 1.7 954.5 1.5 90
2020-03-15 22:00:00 7.7 8 Norte 17 Norte 0 953.2 0.6 92
2020-03-15 21:00:00 7.4 7 Nordeste 17 Nordeste 1.4 952.7 1.6 94
2020-03-15 20:00:00 7.7 13 Nordeste 26 Norte 4.1 953 2.3 94
2020-03-15 19:00:00 8.7 4 Noroeste 32 Norte 5.3 952.6 1.8 90
2020-03-15 18:00:00 10.9 22 Norte 39 Norte 0 951.1 -0.2 74
2020-03-15 17:00:00 14.9 30 Norte 39 Norte 0 950.7 -1.8 66
2020-03-15 16:00:00 20 7 Este 17 Nordeste 0 950.8 -2.7 42
2020-03-15 15:00:00 19 5 Norte 17 Oeste 0 951.3 -3 46
2020-03-15 14:00:00 18.3 7 Oeste 15 Oeste 0 952.5 -2.6 48
2020-03-15 13:00:00 16.3 7 Norte 17 Sudoeste 0 953.5 -2.2 52
2020-03-15 12:00:00 14.5 8 Sudoeste 17 Sudoeste 0 954.3 -1.8 57
2020-03-15 11:00:00 12 6 Oeste 13 Oeste 0 955.1 -0.8 62
2020-03-15 10:00:00 7.9 0 Calma 8 Nordeste 0 955.7 -0.4 78
2020-03-15 09:00:00 3.2 0 Calma 8 Norte 0 956.1 -0.2 96
2020-03-15 08:00:00 -1.3 5 Este 8 Nordeste 0 955.9 -0.6 98
2020-03-15 07:00:00 -2.4 5 Nordeste 8 Nordeste 0 956.1 -1 97
2020-03-15 06:00:00 -2.5 5 Nordeste 5 Nordeste 0 956.3 -1.6 97
2020-03-15 05:00:00 -1.7 5 Nordeste 8 Nordeste 0 956.5 -2.1 98
2020-03-15 04:00:00 -1.4 0 Calma 5 Oeste 0 957.1 -2.2 97
2020-03-15 03:00:00 -1.1 3 Sudeste 5 Sudeste 0 957.9 -1.9 97
2020-03-15 02:00:00 0.2 0 Calma 4 Nordeste 0 958.6 -1.6 97
2020-03-15 01:00:00 0.6 2 Nordeste 5 Este 0 959.3 -1.2 96
2020-03-15 00:00:00 1.7 0 Calma 4 Noroeste 0 959.8 -0.9 94
2020-03-14 23:00:00 2.6 6 Norte 8 Nordeste 0 960.2 -0.4 92
2020-03-14 22:00:00 4.7 0 Calma 8 Noroeste 0 960.5 0 89
2020-03-14 21:00:00 6.3 6 Este 11 Norte 0 960.7 0.2 83
2020-03-14 20:00:00 7.3 8 Nordeste 17 Nordeste 0 960.6 -0.2 79
2020-03-14 19:00:00 11.3 13 Nordeste 18 Nordeste 0 960.5 -0.7 65
2020-03-14 18:00:00 13.9 13 Nordeste 21 Nordeste 0 960.5 -1.2 57
2020-03-14 17:00:00 15 10 Este 21 Nordeste 0 960.8 -1.9 53
2020-03-14 16:00:00 14.7 8 Este 18 Este 0 961.2 -2.2 52
2020-03-14 15:00:00 14.1 8 Nordeste 15 Este 0 961.7 -2.2 53
2020-03-14 14:00:00 13.1 4 Este 18 Nordeste 0 962.7 -1.7 53
2020-03-14 13:00:00 12.8 9 Norte 17 Norte 0 963.4 -1 59
2020-03-14 12:00:00 10.5 4 Sudeste 11 Sudeste 0 963.9 -0.3 64
2020-03-14 11:00:00 7.1 3 Este 8 Este 0 964.4 0.5 78
2020-03-14 10:00:00 3 4 Nordeste 9 Este 0 964.4 1.1 90
2020-03-14 09:00:00 0.1 2 Nordeste 5 Nordeste 0 964.2 1.2 97
2020-03-14 08:00:00 -3 4 Noroeste -- -- 0 963.9 1.2 98
2020-03-14 07:00:00 -3.3 4 Nordeste -- -- 0 963.3 0.4 97
2020-03-14 06:00:00 -3.3 0 Calma 4 Este 0 963 -0.2 97
2020-03-14 05:00:00 -2.7 0 Calma 4 Norte 0 962.7 -0.8 98
2020-03-14 04:00:00 -2.5 2 Este 4 Este 0 962.9 -0.5 97
2020-03-14 03:00:00 -1.7 0 Calma 5 Noroeste 0 963.2 -0.5 96
2020-03-14 02:00:00 -1 3 Este 8 Nordeste 0 963.5 0.1 96
2020-03-14 01:00:00 -0.1 3 Oeste 8 Norte 0 963.4 0.2 95
2020-03-14 00:00:00 0.7 5 Norte 9 Sudeste 0 963.7 1.1 95
2020-03-13 23:00:00 1.5 3 Este 9 Nordeste 0 963.4 1.1 94
2020-03-13 22:00:00 3.5 3 Norte 15 Noroeste 0 963.2 1.1 87
2020-03-13 21:00:00 4.6 13 Norte 17 Norte 0 962.6 0.6 84
2020-03-13 20:00:00 5.9 11 Norte 22 Norte 0 962.3 0.1 79
2020-03-13 19:00:00 8.3 14 Norte 22 Norte 0 962.1 -0.4 70
2020-03-13 18:00:00 10.2 17 Nordeste 28 Norte 0 962 -0.9 62
2020-03-13 17:00:00 11 17 Norte 28 Nordeste 0 962.2 -1.1 59
2020-03-13 16:00:00 10.9 18 Norte 30 Norte 0 962.5 -1.3 61
2020-03-13 15:00:00 10.9 19 Norte 28 Norte 0 962.9 -1.1 67
2020-03-13 14:00:00 9.5 18 Nordeste 28 Norte 0 963.3 -0.6 75
2020-03-13 13:00:00 8.6 17 Nordeste 26 Norte 0 963.8 -0.1 82
2020-03-13 12:00:00 8.2 18 Nordeste 28 Nordeste 0 964 0.1 85
2020-03-13 11:00:00 8 20 Nordeste 30 Nordeste 0 963.9 0.2 85
2020-03-13 10:00:00 8 15 Nordeste 24 Nordeste 0 963.9 0.1 91
2020-03-13 09:00:00 8.4 12 Norte 18 Norte 0 963.9 0.2 87
2020-03-13 08:00:00 7.4 6 Norte 13 Nordeste 0 963.7 0.3 94
2020-03-13 07:00:00 7.6 12 Norte 21 Nordeste 0 963.8 0.3 92
2020-03-13 06:00:00 7.8 14 Norte 28 Norte 0 963.7 -0.2 90
2020-03-13 05:00:00 8 16 Norte 24 Nordeste 0 963.4 -0.6 88
2020-03-13 04:00:00 8.2 19 Norte 28 Norte 0 963.5 -0.8 89
2020-03-13 03:00:00 8.3 13 Norte 21 Norte 0 963.9 -0.6 91
2020-03-13 02:00:00 8.6 8 Norte 13 Norte 0 964 -0.4 91
2020-03-13 01:00:00 8.8 10 Norte 18 Norte 0 964.3 0.4 88
2020-03-13 00:00:00 8.7 10 Norte 18 Nordeste 0 964.5 0.9 89
2020-03-12 23:00:00 9 11 Norte 30 Norte 0 964.4 1.1 88
2020-03-12 22:00:00 9.4 19 Norte 35 Norte 0 963.9 1.2 87
2020-03-12 21:00:00 9.7 13 Norte 22 Norte 0 963.6 1.1 93
2020-03-12 20:00:00 9.9 13 Norte 24 Norte 0 963.3 0.9 92
2020-03-12 19:00:00 10.2 13 Norte 30 Norte 0 962.7 0.7 89
2020-03-12 18:00:00 10.6 14 Norte 30 Nordeste 0 962.5 0.3 89
2020-03-12 17:00:00 10.9 14 Norte 32 Norte 0 962.4 -0.3 90
2020-03-12 16:00:00 12.3 16 Norte 28 Norte 0 962 -1.3 82
2020-03-12 15:00:00 11.6 17 Norte 26 Nordeste 0 962.2 -1.2 85
2020-03-12 14:00:00 12.5 15 Nordeste 24 Nordeste 0 962.7 -0.8 81
2020-03-12 13:00:00 12.6 14 Nordeste 22 Nordeste 0 963.3 -0.2 81
2020-03-12 12:00:00 12.3 13 Norte 21 Norte 0 963.4 0.1 81
2020-03-12 11:00:00 12 15 Nordeste 21 Nordeste 0 963.5 0.3 86
2020-03-12 10:00:00 10.8 8 Norte 15 Norte 0 963.5 0.7 91
2020-03-12 09:00:00 9.7 3 Oeste 11 Oeste 0 963.3 0.9 95
2020-03-12 08:00:00 9.3 6 Noroeste 11 Noroeste 0 963.2 1.2 96
2020-03-12 07:00:00 9.1 9 Norte 17 Nordeste 0 962.8 1.2 96
2020-03-12 06:00:00 8.7 10 Nordeste 17 Nordeste 0 962.4 0.3 98
2020-03-12 05:00:00 8.3 5 Nordeste 13 Nordeste 0 962 -0.4 98
2020-03-12 04:00:00 8.1 9 Nordeste 11 Nordeste 0 961.6 -1 97
2020-03-12 03:00:00 8.4 2 Nordeste 8 Nordeste 0 962.1 -0.4 97
2020-03-12 02:00:00 9.2 0 Calma -- -- 0 962.4 -0.1 97
2020-03-12 01:00:00 9.2 5 Este 8 Este 0 962.6 0.2 96
2020-03-12 00:00:00 10.5 3 Norte 13 Este 0 962.5 0.6 94
2020-03-11 23:00:00 11.3 12 Nordeste 13 Nordeste 0 962.5 0.9 93
2020-03-11 22:00:00 12.3 3 Este 9 Este 0 962.4 1.3 89
2020-03-11 21:00:00 12.7 6 Este 9 Este 0 961.9 1.1 84
2020-03-11 20:00:00 16.1 10 Norte 15 Nordeste 0 961.6 0.9 61
2020-03-11 19:00:00 20.6 8 Sur 15 Sudoeste 0 961.1 -0.2 35
2020-03-11 18:00:00 22.6 9 Sudoeste 21 Sudoeste 0 960.8 -1.2 37
2020-03-11 17:00:00 23.6 12 Sudoeste 24 Sudoeste 0 960.7 -2.3 33
2020-03-11 16:00:00 22.9 13 Sudoeste 22 Sur 0 961.3 -2.8 39
2020-03-11 15:00:00 21.9 7 Sudoeste 18 Sudoeste 0 962 -3 39
2020-03-11 14:00:00 19.5 5 Sudeste 9 Sudeste 0 963 -2.6 49
2020-03-11 13:00:00 16.4 5 Este 11 Este 0 964.1 -1.9 64
2020-03-11 12:00:00 13.1 3 Este 8 Este 0 965 -0.8 74
2020-03-11 11:00:00 8 3 Este 8 Sur 0 965.6 -0.2 94
2020-03-11 10:00:00 4.6 2 Oeste 8 Nordeste 0 966 0.4 100
2020-03-11 09:00:00 3.1 6 Este 8 Este 0 965.8 0.2 100
2020-03-11 08:00:00 2.1 2 Noroeste -- -- 0 965.8 0.3 99
2020-03-11 07:00:00 2.1 -- -- -- -- 0 965.6 0 99
2020-03-11 06:00:00 1.4 0 Calma -- -- 0 965.6 -0.6 99
2020-03-11 05:00:00 1.9 0 Calma -- -- 0 965.5 -1.2 99
2020-03-11 04:00:00 1.8 0 Calma 4 Sudeste 0 965.6 -1.2 98
2020-03-11 03:00:00 2.4 2 Nordeste 8 Norte 0 966.2 -0.7 97
2020-03-11 02:00:00 3.3 4 Este -- -- 0 966.7 -0.1 97
2020-03-11 01:00:00 4 4 Norte 9 Nordeste 0 966.8 0.1 97
2020-03-11 00:00:00 4.8 6 Nordeste 9 Nordeste 0 966.9 0.6 96
2020-03-10 23:00:00 5.6 2 Sur 9 Nordeste 0 966.8 0.8 95
2020-03-10 22:00:00 6.9 5 Nordeste 11 Norte 0 966.7 1.1 95
2020-03-10 21:00:00 8.4 9 Nordeste 11 Este 0 966.3 1.3 91
2020-03-10 20:00:00 10.6 7 Este 22 Norte 0 966 1.3 86
2020-03-10 19:00:00 13.2 15 Norte 24 Nordeste 0 965.6 1 77
2020-03-10 18:00:00 15.1 20 Nordeste 33 Nordeste 0 965 0.3 69
2020-03-10 17:00:00 17.4 24 Nordeste 30 Nordeste 0 964.7 -0.7 60
2020-03-10 16:00:00 18.5 13 Nordeste 21 Nordeste 0 964.6 -1.4 51
2020-03-10 15:00:00 18.3 6 Nordeste 9 Nordeste 0 964.7 -2 48
2020-03-10 14:00:00 16.9 4 Sudeste 9 Sudeste 0 965.4 -1.5 54
2020-03-10 13:00:00 14.2 3 Oeste 9 Sudeste 0 966 -1 59
2020-03-10 12:00:00 10.7 3 Este 9 Este 0 966.7 -0.2 72
2020-03-10 11:00:00 7.6 2 Este 8 Este 0 966.9 0.2 83
2020-03-10 10:00:00 4.4 2 Este 5 Nordeste 0 967 0.7 99
2020-03-10 09:00:00 2.5 0 Calma 4 Este 0 966.9 0.5 99
2020-03-10 08:00:00 1.1 0 Calma 9 Norte 0 966.7 0.4 99
2020-03-10 07:00:00 1 6 Nordeste 8 Nordeste 0 966.3 0 99
2020-03-10 06:00:00 1.3 3 Este -- -- -- 966.4 -0.4 99
2020-03-10 05:00:00 1.3 0 Calma -- -- 0 966.3 -0.8 98
2020-03-10 04:00:00 1.6 0 Calma 4 Oeste 0 966.3 -0.9 98
2020-03-10 03:00:00 2 0 Calma 5 Este 0 966.8 -0.7 98
2020-03-10 02:00:00 2.2 5 Este 9 Norte 0 967.1 -0.8 97
2020-03-10 01:00:00 3 4 Norte -- -- 0 967.2 -0.8 94
2020-03-10 00:00:00 4.3 9 Sudoeste 11 Oeste 0 967.5 -0.6 93
2020-03-09 23:00:00 4.9 6 Sudoeste 11 Sudoeste 0 967.9 -0.1 92
2020-03-09 22:00:00 5.2 4 Oeste 11 Noroeste 0 968 0.4 88
2020-03-09 21:00:00 7 4 Oeste 9 Noroeste 0 968.1 1.1 80
2020-03-09 20:00:00 7.6 6 Norte 15 Norte 0 968 1.1 76
2020-03-09 19:00:00 8.7 15 Noroeste 26 Norte 0 967.6 0.6 72
2020-03-09 18:00:00 9.7 18 Norte 33 Noroeste 0 967 -0.1 69
2020-03-09 17:00:00 10.4 21 Noroeste 39 Noroeste 0 966.9 -0.8 65
2020-03-09 16:00:00 9.9 22 Noroeste 48 Noroeste 0 967 -1 69
2020-03-09 15:00:00 10.5 20 Noroeste 39 Noroeste 0 967.1 -1.3 64
2020-03-09 14:00:00 10 20 Noroeste 45 Noroeste 0 967.7 -0.5 73
2020-03-09 13:00:00 9.7 23 Noroeste 41 Noroeste 0 968 0.3 77
2020-03-09 12:00:00 8.8 19 Noroeste 37 Noroeste 0 968.4 1.1 82
2020-03-09 11:00:00 8.4 21 Noroeste 37 Noroeste 0.2 968.2 1.5 81
2020-03-09 10:00:00 7.9 14 Oeste 22 Oeste 0 967.7 1.2 84
2020-03-09 09:00:00 6.5 8 Oeste 17 Oeste 0.4 967.3 1.4 91
2020-03-09 08:00:00 6.1 3 Oeste 13 Sudoeste 0.3 966.7 0.8 91
2020-03-09 07:00:00 6.2 6 Noroeste 17 Oeste 0.3 966.5 0.6 90
2020-03-09 06:00:00 6.6 10 Oeste 15 Oeste 0 965.9 0 85
2020-03-09 05:00:00 6.9 10 Noroeste 24 Noroeste 0 965.9 0.2 79
2020-03-09 04:00:00 6.6 11 Noroeste 28 Norte 0.1 965.9 0.3 86
2020-03-09 03:00:00 7 7 Oeste 32 Norte 0 965.9 0.7 84
2020-03-09 02:00:00 7.5 15 Noroeste 37 Noroeste 0 965.7 0.7 80
2020-03-09 01:00:00 8.5 7 Oeste 17 Norte 0 965.6 0.8 78
2020-03-09 00:00:00 8.5 5 Norte 17 Norte 0 965.2 0.7 77
2020-03-08 23:00:00 9 6 Noroeste 39 Oeste 0 965 1.2 77
2020-03-08 22:00:00 9 6 Sudeste 21 Norte 0 964.8 1.7 82
2020-03-08 21:00:00 9.4 7 Noroeste 21 Noroeste 0.5 964.5 2.2 87
2020-03-08 20:00:00 9.5 10 Norte 32 Norte 0.1 963.8 1.9 86
2020-03-08 19:00:00 10.4 26 Norte 35 Nordeste 0 963.1 1.1 83
2020-03-08 18:00:00 14 13 Nordeste 24 Norte 0 962.3 0 63
2020-03-08 17:00:00 14.7 16 Sudoeste 26 Sudoeste 0 961.9 -1 58
2020-03-08 16:00:00 15.9 18 Sudoeste 26 Sudoeste 0 962 -1.8 53
2020-03-08 15:00:00 14.6 17 Sur 24 Sur 0 962.3 -2.2 57
2020-03-08 14:00:00 14.2 13 Sudoeste 22 Sudoeste 0 962.9 -1.9 61
2020-03-08 13:00:00 13.3 9 Sudoeste 17 Sudoeste 0 963.8 -1 65
2020-03-08 12:00:00 8.4 3 Sur 8 Sur 0 964.5 0.2 84
2020-03-08 11:00:00 5 3 Este 8 Este 0 964.8 0.8 99
2020-03-08 10:00:00 2.4 2 Nordeste 8 Norte 0 964.8 1 100
2020-03-08 09:00:00 1 3 Nordeste 9 Este 0 964.3 0.6 100
2020-03-08 08:00:00 0.8 4 Nordeste 8 Nordeste 0 964 0.3 100
2020-03-08 07:00:00 1.4 3 Este 8 Nordeste 0 963.8 -0.3 100
2020-03-08 06:00:00 1.7 0 Calma 8 Norte 0 963.7 -1.1 100
2020-03-08 05:00:00 1.8 3 Nordeste 8 Este 0 963.7 -1.2 100
2020-03-08 04:00:00 1.8 0 Calma 8 Sur 0 964.1 -1.2 100
2020-03-08 03:00:00 0.8 3 Sur -- -- 0 964.8 -1.1 99
2020-03-08 02:00:00 -0.1 3 Sudeste 8 Norte 0 964.9 -1.5 99
2020-03-08 01:00:00 0 0 Calma -- -- 0 965.3 -1.3 98
2020-03-08 00:00:00 0.9 2 Nordeste 8 Nordeste 0 965.9 -0.5 98
2020-03-07 23:00:00 1.9 2 Este 4 Nordeste 0 966.4 -0.2 98
2020-03-07 22:00:00 3 4 Sur 8 Norte 0 966.6 0.1 97
2020-03-07 21:00:00 4.5 0 Calma 5 Norte 0 966.4 0.2 96
2020-03-07 20:00:00 6.5 3 Este 9 Nordeste 0 966.6 0.1 92
2020-03-07 19:00:00 9.1 5 Este 11 Este 0 966.5 0 80
2020-03-07 18:00:00 9.3 8 Norte 15 Noroeste 0 966.2 -0.2 79
2020-03-07 17:00:00 9.4 10 Noroeste 24 Noroeste 0 966.5 -0.1 76
2020-03-07 16:00:00 10.3 14 Norte 26 Noroeste 0 966.5 -0.3 73
2020-03-07 15:00:00 9.4 21 Noroeste 42 Noroeste 0 966.4 -0.6 81
2020-03-07 14:00:00 9.3 31 Noroeste 42 Noroeste 0 966.6 0.1 81
2020-03-07 13:00:00 9.8 14 Noroeste 30 Noroeste 0 966.8 0.8 83
2020-03-07 12:00:00 8.8 17 Noroeste 33 Noroeste 0.2 967 1.7 88
2020-03-07 11:00:00 8.4 14 Noroeste 30 Noroeste 0.6 966.5 1.8 91
2020-03-07 10:00:00 7.9 9 Noroeste 30 Norte 0.2 966 1.5 90
2020-03-07 09:00:00 7.6 12 Noroeste 30 Noroeste 0 965.3 1.2 90
2020-03-07 08:00:00 6.8 14 Noroeste 26 Noroeste 0.2 964.7 0.9 93
2020-03-07 07:00:00 6.6 13 Norte 35 Noroeste 0.1 964.5 0.6 89
2020-03-07 06:00:00 6.2 14 Noroeste 32 Noroeste 0.1 964.1 -0.1 91
2020-03-07 05:00:00 6.1 24 Noroeste 37 Noroeste 0.5 963.8 -0.8 90
2020-03-07 04:00:00 5.5 17 Noroeste 30 Noroeste 0.3 963.9 -0.5 92
2020-03-07 03:00:00 5.5 17 Noroeste 32 Norte 0 964.2 0 86
2020-03-07 02:00:00 5.2 17 Noroeste 37 Noroeste 0.4 964.6 0.8 88
2020-03-07 01:00:00 5.1 18 Noroeste 42 Norte 0.4 964.4 0.9 89
2020-03-07 00:00:00 4.5 14 Oeste 41 Noroeste 1.9 964.2 1.2 91
2020-03-06 23:00:00 4.7 13 Noroeste 32 Noroeste 0.5 963.8 1.5 91
2020-03-06 22:00:00 4.7 17 Norte 32 Norte 0.2 963.5 2.6 81
2020-03-06 21:00:00 4.3 17 Noroeste 50 Noroeste 0.1 963 3.3 84
2020-03-06 20:00:00 4.9 19 Noroeste 41 Noroeste 0.2 962.3 3.7 83
2020-03-06 19:00:00 4.9 29 Noroeste 65 Noroeste 0.1 960.9 3 80
2020-03-06 18:00:00 4.8 29 Noroeste 68 Noroeste 0.7 959.7 2 86
2020-03-06 17:00:00 5.1 31 Noroeste 63 Noroeste 0.9 958.6 0.5 86
2020-03-06 16:00:00 6.3 36 Noroeste 72 Oeste 1.3 957.9 0.5 82
2020-03-06 15:00:00 5.7 29 Noroeste 48 Noroeste 1.5 957.7 0.3 86
2020-03-06 14:00:00 4.6 26 Noroeste 52 Oeste 1.3 958.1 1.3 89
2020-03-06 13:00:00 5.8 26 Oeste 41 Noroeste 0.5 957.4 1.5 79
2020-03-06 12:00:00 5 18 Noroeste 50 Oeste 0.2 957.4 2.5 83
2020-03-06 11:00:00 3.9 19 Oeste 37 Oeste 1.2 956.8 3.5 92
2020-03-06 10:00:00 1.6 13 Oeste 26 Oeste 4.3 955.9 3.3 95
2020-03-06 09:00:00 2.8 14 Oeste 35 Oeste 1.4 954.9 3.3 93
2020-03-06 08:00:00 3.9 25 Oeste 42 Oeste 0.3 953.3 1.9 86
2020-03-06 07:00:00 4.3 15 Oeste 42 Oeste 0 952.6 0.8 88
2020-03-06 06:00:00 5.7 24 Oeste 37 Oeste 0 951.6 -0.6 74
2020-03-06 05:00:00 5.2 18 Oeste 32 Oeste 0 951.4 -0.7 79
2020-03-06 04:00:00 4.7 3 Sudoeste 18 Sudoeste 0 951.8 -1.1 82
2020-03-06 03:00:00 5.1 9 Sudoeste 26 Sur 0 952.2 -1.3 82
2020-03-06 02:00:00 3.3 10 Sudoeste 21 Sudoeste 0 952.1 -2.2 87
2020-03-06 01:00:00 3.2 17 Sudoeste 22 Sudoeste 0 952.9 -1.6 90
2020-03-06 00:00:00 3.4 6 Oeste 9 Sudoeste 0 953.5 -1 89
2020-03-05 23:00:00 5.1 2 Sur 9 Sur 0 954.3 0.2 86
2020-03-05 22:00:00 5.3 6 Sur 13 Oeste 0 954.5 1.2 89
2020-03-05 21:00:00 6.3 6 Noroeste 15 Norte 0 954.5 1.5 86
2020-03-05 20:00:00 6.4 7 Noroeste 26 Norte 0 954.1 2.8 83
2020-03-05 19:00:00 7.1 17 Norte 37 Norte 0 953.3 2.8 81
2020-03-05 18:00:00 9.9 22 Noroeste 50 Norte 0 953 3.6 68
2020-03-05 17:00:00 10.5 32 Noroeste 55 Noroeste 0 951.3 2.2 69
2020-03-05 16:00:00 11.9 37 Noroeste 63 Noroeste 0 950.5 2.2 63
2020-03-05 15:00:00 12.1 32 Noroeste 54 Norte 0.1 949.4 1.6 70
2020-03-05 14:00:00 10.8 26 Sudoeste 37 Oeste 0 949.1 1.8 75
2020-03-05 13:00:00 12.1 19 Oeste 35 Noroeste 0.5 948.3 1.9 80
2020-03-05 12:00:00 11.3 12 Norte 21 Nordeste 0.1 947.8 0.8 87
2020-03-05 11:00:00 10 8 Noroeste 42 Sudoeste 0.9 947.3 -0.2 89
2020-03-05 10:00:00 11.7 30 Sudoeste 46 Sudoeste 0.2 946.4 -0.7 88
2020-03-05 09:00:00 12 35 Sudoeste 58 Sudoeste 0 947 -0.7 85
2020-03-05 08:00:00 12.7 28 Sudoeste 52 Sudoeste 0 947.5 -1.3 80
2020-03-05 07:00:00 12.1 29 Sudoeste 68 Sudoeste 0 947.1 -1.8 87
2020-03-05 06:00:00 13.7 24 Sudoeste 54 Sudoeste 0 947.7 -3.2 74
2020-03-05 05:00:00 13.7 26 Sudoeste 58 Sudoeste 0 948.8 -3.4 75
2020-03-05 04:00:00 13.7 42 Sudoeste 67 Sudoeste 0 948.9 -4.4 75
2020-03-05 03:00:00 13.6 35 Sudoeste 52 Sudoeste 0 950.9 -2.7 76
2020-03-05 02:00:00 13.5 17 Sudoeste 45 Sudoeste 0 952.2 -2.5 74
2020-03-05 01:00:00 13.4 22 Sudoeste 52 Sudoeste 0 953.3 -2.1 74
2020-03-05 00:00:00 13.8 40 Sudoeste 52 Sudoeste 0 953.6 -2.2 73
2020-03-04 23:00:00 13.8 27 Sudoeste 42 Sur 0 954.7 -1.6 73
2020-03-04 22:00:00 14.1 25 Sudoeste 46 Sudoeste 0 955.4 -0.7 72
2020-03-04 21:00:00 14.8 27 Sudoeste 52 Sudoeste 0 955.8 0 67
2020-03-04 20:00:00 14.7 22 Sudoeste 32 Sudoeste 0 956.3 0.4 67
2020-03-04 19:00:00 15.5 19 Sudoeste 32 Oeste 0 956.1 -0.5 63
2020-03-04 18:00:00 16.7 17 Sudoeste 35 Sudoeste 0 955.8 -1.1 60
2020-03-04 17:00:00 17.8 22 Sudoeste 32 Oeste 0 955.9 -1.5 56
2020-03-04 16:00:00 17.7 19 Oeste 33 Oeste 0 956.6 -1.7 58
2020-03-04 15:00:00 17.3 17 Sudoeste 30 Sudoeste 0 956.9 -1.8 62
2020-03-04 14:00:00 17.2 20 Sur 30 Sudoeste 0 957.4 -1.5 64
2020-03-04 13:00:00 16.7 20 Sudoeste 30 Oeste 0 958.3 -0.4 68
2020-03-04 12:00:00 15.3 18 Sudoeste 28 Sudoeste 0 958.7 0.5 74
2020-03-04 11:00:00 13.4 4 Oeste 17 Norte 0 958.9 1.1 86
2020-03-04 10:00:00 10.1 9 Norte 18 Norte 0 958.7 1.3 95
2020-03-04 09:00:00 9 9 Nordeste 15 Nordeste 0 958.2 0.6 98
2020-03-04 08:00:00 8.2 7 Nordeste 9 Nordeste 0 957.8 0.4 99
2020-03-04 07:00:00 7.9 8 Nordeste 9 Nordeste 0.3 957.4 0 99
2020-03-04 06:00:00 7.7 0 Calma 9 Nordeste 1.7 957.6 -0.3 98
2020-03-04 05:00:00 7.7 5 Nordeste 8 Este 1 957.4 -0.7 98
2020-03-04 04:00:00 7.6 4 Nordeste -- -- 0 957.4 -0.9 97
2020-03-04 03:00:00 7.5 9 Nordeste 11 Nordeste 0 957.9 -0.9 98
2020-03-04 02:00:00 7.2 3 Sudoeste -- -- -- 958.1 -0.8 97
2020-03-04 01:00:00 7.3 0 Calma 13 Nordeste 0 958.3 -0.1 96
2020-03-04 00:00:00 7.6 11 Nordeste 13 Nordeste 0 958.8 1.1 94
2020-03-03 23:00:00 8.8 6 Nordeste 17 Norte 0 958.9 2.4 89
2020-03-03 22:00:00 9.2 5 Noroeste 26 Oeste 0 958.4 3.1 87
2020-03-03 21:00:00 9.3 13 Noroeste 45 Noroeste 0 957.7 3.6 86
2020-03-03 20:00:00 9.8 27 Noroeste 59 Noroeste 0 956.5 3.6 83
2020-03-03 19:00:00 10.6 35 Noroeste 59 Noroeste 0 955.3 3.2 80
2020-03-03 18:00:00 12.6 40 Noroeste 67 Noroeste 0 954.1 4.1 67
2020-03-03 17:00:00 12.6 39 Noroeste 68 Noroeste 0 952.9 4.1 68
2020-03-03 16:00:00 14.1 43 Noroeste 80 Norte 0 952.1 3.7 66
2020-03-03 15:00:00 16.9 41 Noroeste 85 Oeste 0 950 2 53
2020-03-03 14:00:00 17.9 30 Oeste 54 Oeste 0 948.8 0.3 51
2020-03-03 13:00:00 15.9 29 Sudoeste 54 Oeste 0 948.4 -0.6 59
2020-03-03 12:00:00 13.8 32 Sudoeste 55 Sudoeste 0 948 -1.5 66
2020-03-03 11:00:00 11.9 36 Sudoeste 52 Sudoeste 0 948.5 -2.1 71
2020-03-03 10:00:00 8.2 16 Oeste 32 Oeste 0 949 -3.5 85
2020-03-03 09:00:00 5.5 15 Sudoeste 26 Oeste 0.2 949.5 -3.7 89
2020-03-03 08:00:00 4.5 8 Sudoeste 33 Sudoeste 0.8 950.6 -3 91
2020-03-03 07:00:00 4.7 20 Sudoeste 32 Sudoeste 1.5 952.5 -1.5 90
2020-03-03 06:00:00 5.3 19 Sudoeste 26 Sudoeste 0 953.2 -1.8 86
2020-03-03 05:00:00 5.3 6 Sur 17 Sudoeste 0 953.6 -1.8 78
2020-03-03 04:00:00 4.8 9 Sudoeste 17 Sudoeste 0 954 -2 76
2020-03-03 03:00:00 4.5 9 Sur 24 Sudoeste 0 955 -0.9 73
2020-03-03 02:00:00 4 12 Sudoeste -- -- -- 955.4 -0.5 75
2020-03-03 01:00:00 3.5 10 Sudoeste 17 Sur 0 956 0.5 81
2020-03-03 00:00:00 4.3 8 Sudoeste 26 Sur 0 955.9 0.6 70